sensor_id;sensor_type;location;lat;lon;timestamp;temperature;humidity
38860;DHT22;24609;48.316;16.174;2024-03-17T00:01:17;10.20;73.40
38860;DHT22;24609;48.316;16.174;2024-03-17T00:03:42;10.20;99.90
38860;DHT22;24609;48.316;16.174;2024-03-17T00:06:08;10.20;88.40
38860;DHT22;24609;48.316;16.174;2024-03-17T00:08:35;10.20;99.90
38860;DHT22;24609;48.316;16.174;2024-03-17T00:11:00;10.20;99.90
38860;DHT22;24609;48.316;16.174;2024-03-17T00:13:26;10.10;99.90
38860;DHT22;24609;48.316;16.174;2024-03-17T00:15:52;10.00;99.90
38860;DHT22;24609;48.316;16.174;2024-03-17T00:18:18;10.00;1.00
38860;DHT22;24609;48.316;16.174;2024-03-17T00:20:44;9.80;1.00
38860;DHT22;24609;48.316;16.174;2024-03-17T00:23:10;9.60;99.90
38860;DHT22;24609;48.316;16.174;2024-03-17T00:25:38;9.50;99.90
38860;DHT22;24609;48.316;16.174;2024-03-17T00:28:04;9.50;99.90
38860;DHT22;24609;48.316;16.174;2024-03-17T00:30:30;9.40;1.00
38860;DHT22;24609;48.316;16.174;2024-03-17T00:32:56;9.30;1.00
38860;DHT22;24609;48.316;16.174;2024-03-17T00:35:24;9.30;1.00
38860;DHT22;24609;48.316;16.174;2024-03-17T00:37:50;9.30;1.00
38860;DHT22;24609;48.316;16.174;2024-03-17T00:40:17;9.30;99.90
38860;DHT22;24609;48.316;16.174;2024-03-17T00:42:43;9.40;99.90
38860;DHT22;24609;48.316;16.174;2024-03-17T00:45:10;9.30;99.90
38860;DHT22;24609;48.316;16.174;2024-03-17T00:47:37;9.40;99.90
38860;DHT22;24609;48.316;16.174;2024-03-17T00:50:04;9.50;99.90
38860;DHT22;24609;48.316;16.174;2024-03-17T00:52:30;9.50;99.90
38860;DHT22;24609;48.316;16.174;2024-03-17T00:54:56;9.50;90.00
38860;DHT22;24609;48.316;16.174;2024-03-17T00:57:22;9.60;26.80
38860;DHT22;24609;48.316;16.174;2024-03-17T00:59:47;9.60;1.00
38860;DHT22;24609;48.316;16.174;2024-03-17T01:02:17;9.70;1.00
38860;DHT22;24609;48.316;16.174;2024-03-17T01:04:43;9.60;1.00
38860;DHT22;24609;48.316;16.174;2024-03-17T01:07:10;9.60;1.00
38860;DHT22;24609;48.316;16.174;2024-03-17T01:09:35;9.70;1.00
38860;DHT22;24609;48.316;16.174;2024-03-17T01:12:02;9.70;1.00
38860;DHT22;24609;48.316;16.174;2024-03-17T01:14:28;9.70;1.00
38860;DHT22;24609;48.316;16.174;2024-03-17T01:16:54;9.70;99.90
38860;DHT22;24609;48.316;16.174;2024-03-17T01:19:20;9.70;99.90
38860;DHT22;24609;48.316;16.174;2024-03-17T01:21:46;9.70;99.90
38860;DHT22;24609;48.316;16.174;2024-03-17T01:24:12;9.70;99.90
38860;DHT22;24609;48.316;16.174;2024-03-17T01:26:38;9.70;1.00
38860;DHT22;24609;48.316;16.174;2024-03-17T01:29:04;9.70;99.90
38860;DHT22;24609;48.316;16.174;2024-03-17T01:31:29;9.70;99.90
38860;DHT22;24609;48.316;16.174;2024-03-17T01:33:55;9.60;99.90
38860;DHT22;24609;48.316;16.174;2024-03-17T01:36:21;9.60;99.90
38860;DHT22;24609;48.316;16.174;2024-03-17T01:38:47;9.60;99.90
38860;DHT22;24609;48.316;16.174;2024-03-17T01:41:12;9.60;99.90
38860;DHT22;24609;48.316;16.174;2024-03-17T01:43:39;9.50;99.90
38860;DHT22;24609;48.316;16.174;2024-03-17T01:46:06;9.50;99.90
38860;DHT22;24609;48.316;16.174;2024-03-17T01:48:32;9.50;1.00
38860;DHT22;24609;48.316;16.174;2024-03-17T01:50:59;9.50;1.00
38860;DHT22;24609;48.316;16.174;2024-03-17T01:53:25;9.40;1.00
38860;DHT22;24609;48.316;16.174;2024-03-17T01:55:52;9.40;99.90
38860;DHT22;24609;48.316;16.174;2024-03-17T01:58:20;9.30;99.90
38860;DHT22;24609;48.316;16.174;2024-03-17T02:00:46;9.30;99.90
38860;DHT22;24609;48.316;16.174;2024-03-17T02:03:12;9.20;1.00
38860;DHT22;24609;48.316;16.174;2024-03-17T02:05:39;9.20;19.30
38860;DHT22;24609;48.316;16.174;2024-03-17T02:08:05;9.10;99.90
38860;DHT22;24609;48.316;16.174;2024-03-17T02:10:32;9.10;1.00
38860;DHT22;24609;48.316;16.174;2024-03-17T02:12:59;9.10;72.10
38860;DHT22;24609;48.316;16.174;2024-03-17T02:15:25;9.00;99.90
38860;DHT22;24609;48.316;16.174;2024-03-17T02:17:51;9.00;99.90
38860;DHT22;24609;48.316;16.174;2024-03-17T02:20:17;9.00;99.90
38860;DHT22;24609;48.316;16.174;2024-03-17T02:22:43;8.90;99.90
38860;DHT22;24609;48.316;16.174;2024-03-17T02:25:09;8.80;99.90
38860;DHT22;24609;48.316;16.174;2024-03-17T02:27:35;8.80;99.90
38860;DHT22;24609;48.316;16.174;2024-03-17T02:30:02;8.70;99.90
38860;DHT22;24609;48.316;16.174;2024-03-17T02:32:28;8.50;99.90
38860;DHT22;24609;48.316;16.174;2024-03-17T02:34:54;8.30;99.90
38860;DHT22;24609;48.316;16.174;2024-03-17T02:37:20;8.20;1.00
38860;DHT22;24609;48.316;16.174;2024-03-17T02:39:46;8.20;1.00
38860;DHT22;24609;48.316;16.174;2024-03-17T02:42:12;8.20;99.90
38860;DHT22;24609;48.316;16.174;2024-03-17T02:44:38;8.10;99.90
38860;DHT22;24609;48.316;16.174;2024-03-17T02:47:05;7.90;1.00
38860;DHT22;24609;48.316;16.174;2024-03-17T02:49:34;7.90;1.00
38860;DHT22;24609;48.316;16.174;2024-03-17T02:52:04;7.70;28.00
38860;DHT22;24609;48.316;16.174;2024-03-17T02:54:30;7.70;1.00
38860;DHT22;24609;48.316;16.174;2024-03-17T02:56:56;7.60;99.90
38860;DHT22;24609;48.316;16.174;2024-03-17T02:59:21;7.60;99.90
38860;DHT22;24609;48.316;16.174;2024-03-17T03:01:47;7.60;99.90
38860;DHT22;24609;48.316;16.174;2024-03-17T03:04:13;7.60;99.90
38860;DHT22;24609;48.316;16.174;2024-03-17T03:06:38;7.60;99.90
38860;DHT22;24609;48.316;16.174;2024-03-17T03:09:04;7.40;1.00
38860;DHT22;24609;48.316;16.174;2024-03-17T03:11:42;7.20;99.90
38860;DHT22;24609;48.316;16.174;2024-03-17T03:14:07;7.00;99.90
38860;DHT22;24609;48.316;16.174;2024-03-17T03:16:33;6.80;1.00
38860;DHT22;24609;48.316;16.174;2024-03-17T03:18:59;6.80;1.00
38860;DHT22;24609;48.316;16.174;2024-03-17T03:21:25;6.80;99.90
38860;DHT22;24609;48.316;16.174;2024-03-17T03:23:51;6.80;1.00
38860;DHT22;24609;48.316;16.174;2024-03-17T03:26:17;6.70;1.00
38860;DHT22;24609;48.316;16.174;2024-03-17T03:28:43;6.60;1.00
38860;DHT22;24609;48.316;16.174;2024-03-17T03:31:13;6.50;1.00
38860;DHT22;24609;48.316;16.174;2024-03-17T03:33:41;6.50;8.90
38860;DHT22;24609;48.316;16.174;2024-03-17T03:36:11;6.60;28.10
38860;DHT22;24609;48.316;16.174;2024-03-17T03:38:38;6.60;1.00
38860;DHT22;24609;48.316;16.174;2024-03-17T03:41:13;6.50;16.70
38860;DHT22;24609;48.316;16.174;2024-03-17T03:43:39;6.30;40.80
38860;DHT22;24609;48.316;16.174;2024-03-17T03:46:06;6.20;99.90
38860;DHT22;24609;48.316;16.174;2024-03-17T03:48:32;6.10;99.90
38860;DHT22;24609;48.316;16.174;2024-03-17T03:51:09;6.10;99.90
38860;DHT22;24609;48.316;16.174;2024-03-17T03:53:36;6.00;99.90
38860;DHT22;24609;48.316;16.174;2024-03-17T03:56:05;6.00;99.90
38860;DHT22;24609;48.316;16.174;2024-03-17T03:58:39;6.00;1.00
38860;DHT22;24609;48.316;16.174;2024-03-17T04:01:09;6.00;1.00
38860;DHT22;24609;48.316;16.174;2024-03-17T04:03:46;5.90;1.00
38860;DHT22;24609;48.316;16.174;2024-03-17T04:06:13;6.00;99.90
38860;DHT22;24609;48.316;16.174;2024-03-17T04:08:39;6.10;99.90
38860;DHT22;24609;48.316;16.174;2024-03-17T04:11:08;6.20;1.00
38860;DHT22;24609;48.316;16.174;2024-03-17T04:13:34;6.20;97.50
38860;DHT22;24609;48.316;16.174;2024-03-17T04:16:03;6.20;99.90
38860;DHT22;24609;48.316;16.174;2024-03-17T04:18:31;6.10;99.90
38860;DHT22;24609;48.316;16.174;2024-03-17T04:20:58;6.10;1.00
38860;DHT22;24609;48.316;16.174;2024-03-17T04:23:26;6.00;1.00
38860;DHT22;24609;48.316;16.174;2024-03-17T04:25:52;6.10;1.00
38860;DHT22;24609;48.316;16.174;2024-03-17T04:28:18;6.00;95.50
38860;DHT22;24609;48.316;16.174;2024-03-17T04:30:44;5.90;99.90
38860;DHT22;24609;48.316;16.174;2024-03-17T04:33:11;5.80;99.90
38860;DHT22;24609;48.316;16.174;2024-03-17T04:35:38;5.70;1.00
38860;DHT22;24609;48.316;16.174;2024-03-17T04:38:04;5.60;50.80
38860;DHT22;24609;48.316;16.174;2024-03-17T04:40:34;5.60;64.40
38860;DHT22;24609;48.316;16.174;2024-03-17T04:43:00;5.50;99.90
38860;DHT22;24609;48.316;16.174;2024-03-17T04:45:26;5.50;99.90
38860;DHT22;24609;48.316;16.174;2024-03-17T04:47:52;5.40;99.90
38860;DHT22;24609;48.316;16.174;2024-03-17T04:50:17;5.40;99.90
38860;DHT22;24609;48.316;16.174;2024-03-17T04:52:44;5.40;99.90
38860;DHT22;24609;48.316;16.174;2024-03-17T04:55:09;5.40;99.90
38860;DHT22;24609;48.316;16.174;2024-03-17T04:57:35;5.40;1.00
38860;DHT22;24609;48.316;16.174;2024-03-17T05:00:02;5.40;1.00
38860;DHT22;24609;48.316;16.174;2024-03-17T05:02:28;5.30;1.00
38860;DHT22;24609;48.316;16.174;2024-03-17T05:04:54;5.30;1.00
38860;DHT22;24609;48.316;16.174;2024-03-17T05:07:19;5.20;55.70
38860;DHT22;24609;48.316;16.174;2024-03-17T05:09:45;5.00;99.90
38860;DHT22;24609;48.316;16.174;2024-03-17T05:12:11;4.70;99.90
38860;DHT22;24609;48.316;16.174;2024-03-17T05:14:36;4.60;1.00
38860;DHT22;24609;48.316;16.174;2024-03-17T05:17:02;4.50;99.90
38860;DHT22;24609;48.316;16.174;2024-03-17T05:19:28;4.40;99.90
38860;DHT22;24609;48.316;16.174;2024-03-17T05:21:54;4.30;99.90
38860;DHT22;24609;48.316;16.174;2024-03-17T05:24:19;4.30;99.90
38860;DHT22;24609;48.316;16.174;2024-03-17T05:26:45;4.30;99.90
38860;DHT22;24609;48.316;16.174;2024-03-17T05:29:11;4.40;99.90
38860;DHT22;24609;48.316;16.174;2024-03-17T05:31:37;4.50;99.90
38860;DHT22;24609;48.316;16.174;2024-03-17T05:34:08;4.60;2.00
38860;DHT22;24609;48.316;16.174;2024-03-17T05:36:35;4.70;1.00
38860;DHT22;24609;48.316;16.174;2024-03-17T05:39:01;5.00;99.90
38860;DHT22;24609;48.316;16.174;2024-03-17T05:41:27;5.10;99.90
38860;DHT22;24609;48.316;16.174;2024-03-17T05:43:53;5.40;1.00
38860;DHT22;24609;48.316;16.174;2024-03-17T05:46:23;5.70;21.30
38860;DHT22;24609;48.316;16.174;2024-03-17T05:48:51;5.90;99.90
38860;DHT22;24609;48.316;16.174;2024-03-17T05:51:17;6.10;99.90
38860;DHT22;24609;48.316;16.174;2024-03-17T05:53:42;6.40;1.00
38860;DHT22;24609;48.316;16.174;2024-03-17T05:56:11;6.60;99.90
38860;DHT22;24609;48.316;16.174;2024-03-17T05:58:38;6.80;99.90
38860;DHT22;24609;48.316;16.174;2024-03-17T06:01:05;6.90;1.00
38860;DHT22;24609;48.316;16.174;2024-03-17T06:03:35;6.90;1.00
38860;DHT22;24609;48.316;16.174;2024-03-17T06:06:02;6.90;99.90
38860;DHT22;24609;48.316;16.174;2024-03-17T06:08:29;7.00;99.90
38860;DHT22;24609;48.316;16.174;2024-03-17T06:10:54;7.20;99.90
38860;DHT22;24609;48.316;16.174;2024-03-17T06:13:23;7.30;99.90
38860;DHT22;24609;48.316;16.174;2024-03-17T06:15:50;7.40;99.90
38860;DHT22;24609;48.316;16.174;2024-03-17T06:18:15;7.40;99.90
38860;DHT22;24609;48.316;16.174;2024-03-17T06:20:47;7.40;1.00
38860;DHT22;24609;48.316;16.174;2024-03-17T06:23:14;7.30;1.00
38860;DHT22;24609;48.316;16.174;2024-03-17T06:25:42;7.30;1.00
38860;DHT22;24609;48.316;16.174;2024-03-17T06:28:13;7.40;1.00
38860;DHT22;24609;48.316;16.174;2024-03-17T06:30:46;7.60;1.00
38860;DHT22;24609;48.316;16.174;2024-03-17T06:33:19;7.70;99.90
38860;DHT22;24609;48.316;16.174;2024-03-17T06:35:46;8.50;1.00
38860;DHT22;24609;48.316;16.174;2024-03-17T06:38:15;9.20;99.90
38860;DHT22;24609;48.316;16.174;2024-03-17T06:40:41;9.50;99.90
38860;DHT22;24609;48.316;16.174;2024-03-17T06:43:07;9.70;76.00
38860;DHT22;24609;48.316;16.174;2024-03-17T06:45:33;10.20;1.00
38860;DHT22;24609;48.316;16.174;2024-03-17T06:47:59;10.10;1.00
38860;DHT22;24609;48.316;16.174;2024-03-17T06:50:25;10.10;1.00
38860;DHT22;24609;48.316;16.174;2024-03-17T06:52:51;10.10;1.00
38860;DHT22;24609;48.316;16.174;2024-03-17T06:55:19;9.80;1.00
38860;DHT22;24609;48.316;16.174;2024-03-17T06:57:47;9.70;1.00
38860;DHT22;24609;48.316;16.174;2024-03-17T07:00:13;9.30;1.00
38860;DHT22;24609;48.316;16.174;2024-03-17T07:02:49;9.30;1.00
38860;DHT22;24609;48.316;16.174;2024-03-17T07:05:15;9.70;1.00
38860;DHT22;24609;48.316;16.174;2024-03-17T07:07:41;10.00;1.00
38860;DHT22;24609;48.316;16.174;2024-03-17T07:10:07;10.10;1.00
38860;DHT22;24609;48.316;16.174;2024-03-17T07:12:34;9.90;1.00
38860;DHT22;24609;48.316;16.174;2024-03-17T07:15:00;9.70;1.00
38860;DHT22;24609;48.316;16.174;2024-03-17T07:17:25;9.90;1.00
38860;DHT22;24609;48.316;16.174;2024-03-17T07:19:51;10.10;1.00
38860;DHT22;24609;48.316;16.174;2024-03-17T07:22:17;10.10;1.00
38860;DHT22;24609;48.316;16.174;2024-03-17T07:24:43;10.50;1.00
38860;DHT22;24609;48.316;16.174;2024-03-17T07:27:10;10.80;1.00
38860;DHT22;24609;48.316;16.174;2024-03-17T07:29:39;11.30;1.00
38860;DHT22;24609;48.316;16.174;2024-03-17T07:32:05;12.20;99.90
38860;DHT22;24609;48.316;16.174;2024-03-17T07:34:32;11.60;99.90
38860;DHT22;24609;48.316;16.174;2024-03-17T07:36:58;12.20;99.90
38860;DHT22;24609;48.316;16.174;2024-03-17T07:39:29;12.90;99.90
38860;DHT22;24609;48.316;16.174;2024-03-17T07:42:01;12.60;99.90
38860;DHT22;24609;48.316;16.174;2024-03-17T07:44:28;12.50;99.90
38860;DHT22;24609;48.316;16.174;2024-03-17T07:46:58;12.30;99.90
38860;DHT22;24609;48.316;16.174;2024-03-17T07:49:24;12.40;99.90
38860;DHT22;24609;48.316;16.174;2024-03-17T07:51:50;12.70;99.90
38860;DHT22;24609;48.316;16.174;2024-03-17T07:54:15;12.50;99.90
38860;DHT22;24609;48.316;16.174;2024-03-17T07:56:41;12.20;99.90
38860;DHT22;24609;48.316;16.174;2024-03-17T07:59:06;12.70;99.90
38860;DHT22;24609;48.316;16.174;2024-03-17T08:01:37;12.90;99.90
38860;DHT22;24609;48.316;16.174;2024-03-17T08:04:04;12.80;99.90
38860;DHT22;24609;48.316;16.174;2024-03-17T08:06:30;12.80;99.90
38860;DHT22;24609;48.316;16.174;2024-03-17T08:08:55;13.10;99.90
38860;DHT22;24609;48.316;16.174;2024-03-17T08:11:22;12.80;99.90
38860;DHT22;24609;48.316;16.174;2024-03-17T08:13:48;12.90;99.90
38860;DHT22;24609;48.316;16.174;2024-03-17T08:16:14;13.00;99.90
38860;DHT22;24609;48.316;16.174;2024-03-17T08:18:41;13.00;99.90
38860;DHT22;24609;48.316;16.174;2024-03-17T08:21:06;12.80;99.90
38860;DHT22;24609;48.316;16.174;2024-03-17T08:23:33;12.90;99.90
38860;DHT22;24609;48.316;16.174;2024-03-17T08:26:01;12.70;99.90
38860;DHT22;24609;48.316;16.174;2024-03-17T08:28:28;12.90;99.90
38860;DHT22;24609;48.316;16.174;2024-03-17T08:30:54;13.50;99.90
38860;DHT22;24609;48.316;16.174;2024-03-17T08:33:21;13.70;99.90
38860;DHT22;24609;48.316;16.174;2024-03-17T08:36:00;13.90;99.90
38860;DHT22;24609;48.316;16.174;2024-03-17T08:38:28;13.90;99.90
38860;DHT22;24609;48.316;16.174;2024-03-17T08:41:01;14.10;99.90
38860;DHT22;24609;48.316;16.174;2024-03-17T08:43:27;13.20;99.90
38860;DHT22;24609;48.316;16.174;2024-03-17T08:46:01;13.00;99.90
38860;DHT22;24609;48.316;16.174;2024-03-17T08:48:29;12.80;99.90
38860;DHT22;24609;48.316;16.174;2024-03-17T08:50:56;12.70;99.90
38860;DHT22;24609;48.316;16.174;2024-03-17T08:53:22;13.10;99.90
38860;DHT22;24609;48.316;16.174;2024-03-17T08:55:49;13.60;99.90
38860;DHT22;24609;48.316;16.174;2024-03-17T08:58:15;13.30;99.90
38860;DHT22;24609;48.316;16.174;2024-03-17T09:00:41;13.30;99.90
38860;DHT22;24609;48.316;16.174;2024-03-17T09:03:08;13.50;99.90
38860;DHT22;24609;48.316;16.174;2024-03-17T09:05:41;13.20;99.90
38860;DHT22;24609;48.316;16.174;2024-03-17T09:08:07;13.20;99.90
38860;DHT22;24609;48.316;16.174;2024-03-17T09:10:42;13.10;99.90
38860;DHT22;24609;48.316;16.174;2024-03-17T09:13:21;12.90;99.90
38860;DHT22;24609;48.316;16.174;2024-03-17T09:16:01;12.60;99.90
38860;DHT22;24609;48.316;16.174;2024-03-17T09:18:27;12.60;99.90
38860;DHT22;24609;48.316;16.174;2024-03-17T09:21:02;12.70;99.90
38860;DHT22;24609;48.316;16.174;2024-03-17T09:23:30;12.80;99.90
38860;DHT22;24609;48.316;16.174;2024-03-17T09:26:04;12.70;99.90
38860;DHT22;24609;48.316;16.174;2024-03-17T09:28:31;12.80;99.90
38860;DHT22;24609;48.316;16.174;2024-03-17T09:30:58;13.30;99.90
38860;DHT22;24609;48.316;16.174;2024-03-17T09:33:25;14.00;99.90
38860;DHT22;24609;48.316;16.174;2024-03-17T09:35:57;14.40;99.90
38860;DHT22;24609;48.316;16.174;2024-03-17T09:38:23;15.80;99.90
38860;DHT22;24609;48.316;16.174;2024-03-17T09:40:49;16.80;99.90
38860;DHT22;24609;48.316;16.174;2024-03-17T09:43:18;15.90;99.90
38860;DHT22;24609;48.316;16.174;2024-03-17T09:45:44;14.80;99.90
38860;DHT22;24609;48.316;16.174;2024-03-17T09:48:14;15.00;99.90
38860;DHT22;24609;48.316;16.174;2024-03-17T09:50:41;13.90;99.90
38860;DHT22;24609;48.316;16.174;2024-03-17T09:53:13;14.80;99.90
38860;DHT22;24609;48.316;16.174;2024-03-17T09:55:41;16.10;99.90
38860;DHT22;24609;48.316;16.174;2024-03-17T09:58:15;15.60;99.90
38860;DHT22;24609;48.316;16.174;2024-03-17T10:00:42;15.20;99.90
38860;DHT22;24609;48.316;16.174;2024-03-17T10:03:07;15.00;99.90
38860;DHT22;24609;48.316;16.174;2024-03-17T10:05:33;14.30;99.90
38860;DHT22;24609;48.316;16.174;2024-03-17T10:07:59;14.30;99.90
38860;DHT22;24609;48.316;16.174;2024-03-17T10:10:25;13.90;99.90
38860;DHT22;24609;48.316;16.174;2024-03-17T10:12:52;12.80;99.90
38860;DHT22;24609;48.316;16.174;2024-03-17T10:15:19;13.30;99.90
38860;DHT22;24609;48.316;16.174;2024-03-17T10:17:45;14.10;99.90
38860;DHT22;24609;48.316;16.174;2024-03-17T10:20:19;14.40;99.90
38860;DHT22;24609;48.316;16.174;2024-03-17T10:23:02;14.60;99.90
38860;DHT22;24609;48.316;16.174;2024-03-17T10:25:33;13.90;99.90
38860;DHT22;24609;48.316;16.174;2024-03-17T10:28:01;13.70;99.90
38860;DHT22;24609;48.316;16.174;2024-03-17T10:30:27;14.00;99.90
38860;DHT22;24609;48.316;16.174;2024-03-17T10:33:00;14.60;99.90
38860;DHT22;24609;48.316;16.174;2024-03-17T10:37:57;15.70;99.90
38860;DHT22;24609;48.316;16.174;2024-03-17T10:40:24;15.20;99.90
38860;DHT22;24609;48.316;16.174;2024-03-17T10:42:50;15.70;99.90
38860;DHT22;24609;48.316;16.174;2024-03-17T10:45:16;16.70;99.90
38860;DHT22;24609;48.316;16.174;2024-03-17T10:47:50;17.10;99.90
38860;DHT22;24609;48.316;16.174;2024-03-17T10:50:24;18.50;99.90
38860;DHT22;24609;48.316;16.174;2024-03-17T10:52:50;18.10;99.90
38860;DHT22;24609;48.316;16.174;2024-03-17T10:55:24;19.10;99.90
38860;DHT22;24609;48.316;16.174;2024-03-17T10:57:54;21.10;99.90
38860;DHT22;24609;48.316;16.174;2024-03-17T11:00:24;21.60;99.90
38860;DHT22;24609;48.316;16.174;2024-03-17T11:02:52;22.90;99.90
38860;DHT22;24609;48.316;16.174;2024-03-17T11:05:22;22.50;99.90
38860;DHT22;24609;48.316;16.174;2024-03-17T11:07:50;25.90;99.90
38860;DHT22;24609;48.316;16.174;2024-03-17T11:10:20;26.80;99.90
38860;DHT22;24609;48.316;16.174;2024-03-17T11:12:51;28.80;99.90
38860;DHT22;24609;48.316;16.174;2024-03-17T11:17:50;28.30;99.90
38860;DHT22;24609;48.316;16.174;2024-03-17T11:20:27;27.50;99.90
38860;DHT22;24609;48.316;16.174;2024-03-17T11:22:58;26.30;99.90
38860;DHT22;24609;48.316;16.174;2024-03-17T11:27:56;26.90;99.90
38860;DHT22;24609;48.316;16.174;2024-03-17T11:39:01;27.40;99.90
38860;DHT22;24609;48.316;16.174;2024-03-17T11:41:42;26.30;99.90
38860;DHT22;24609;48.316;16.174;2024-03-17T11:46:51;27.20;99.90
38860;DHT22;24609;48.316;16.174;2024-03-17T11:49:27;25.70;99.90
38860;DHT22;24609;48.316;16.174;2024-03-17T11:51:58;24.70;99.90
38860;DHT22;24609;48.316;16.174;2024-03-17T11:54:28;21.80;96.10
38860;DHT22;24609;48.316;16.174;2024-03-17T11:57:03;19.10;92.40
38860;DHT22;24609;48.316;16.174;2024-03-17T11:59:29;19.00;94.70
38860;DHT22;24609;48.316;16.174;2024-03-17T12:01:56;19.30;95.30
38860;DHT22;24609;48.316;16.174;2024-03-17T12:04:23;18.60;92.30
38860;DHT22;24609;48.316;16.174;2024-03-17T12:06:59;18.10;94.80
38860;DHT22;24609;48.316;16.174;2024-03-17T12:09:25;17.50;93.10
38860;DHT22;24609;48.316;16.174;2024-03-17T12:12:01;18.50;95.00
38860;DHT22;24609;48.316;16.174;2024-03-17T12:14:28;19.90;95.80
38860;DHT22;24609;48.316;16.174;2024-03-17T12:16:59;20.20;97.20
38860;DHT22;24609;48.316;16.174;2024-03-17T12:19:25;23.30;99.90
38860;DHT22;24609;48.316;16.174;2024-03-17T12:21:53;27.90;99.90
38860;DHT22;24609;48.316;16.174;2024-03-17T12:24:24;28.30;99.90
38860;DHT22;24609;48.316;16.174;2024-03-17T12:26:51;27.80;99.90
38860;DHT22;24609;48.316;16.174;2024-03-17T12:29:39;28.30;99.90
38860;DHT22;24609;48.316;16.174;2024-03-17T12:34:39;23.90;94.60
38860;DHT22;24609;48.316;16.174;2024-03-17T12:37:05;22.00;92.20
38860;DHT22;24609;48.316;16.174;2024-03-17T12:39:33;20.60;91.40
38860;DHT22;24609;48.316;16.174;2024-03-17T12:42:08;19.40;91.40
38860;DHT22;24609;48.316;16.174;2024-03-17T12:44:49;17.90;85.00
38860;DHT22;24609;48.316;16.174;2024-03-17T12:47:19;17.80;90.20
38860;DHT22;24609;48.316;16.174;2024-03-17T12:49:46;17.90;91.10
38860;DHT22;24609;48.316;16.174;2024-03-17T12:52:27;18.20;90.90
38860;DHT22;24609;48.316;16.174;2024-03-17T12:55:03;20.70;95.10
38860;DHT22;24609;48.316;16.174;2024-03-17T13:00:33;20.90;92.70
38860;DHT22;24609;48.316;16.174;2024-03-17T13:05:26;18.40;90.50
38860;DHT22;24609;48.316;16.174;2024-03-17T13:07:53;18.00;92.00
38860;DHT22;24609;48.316;16.174;2024-03-17T13:10:20;17.70;91.10
38860;DHT22;24609;48.316;16.174;2024-03-17T13:12:47;17.10;98.30
38860;DHT22;24609;48.316;16.174;2024-03-17T13:15:17;16.80;91.40
38860;DHT22;24609;48.316;16.174;2024-03-17T13:17:44;16.60;90.20
38860;DHT22;24609;48.316;16.174;2024-03-17T13:20:13;16.20;90.40
38860;DHT22;24609;48.316;16.174;2024-03-17T13:22:41;16.30;91.20
38860;DHT22;24609;48.316;16.174;2024-03-17T13:25:33;16.30;90.90
38860;DHT22;24609;48.316;16.174;2024-03-17T13:28:04;17.20;93.20
38860;DHT22;24609;48.316;16.174;2024-03-17T13:30:30;19.00;94.50
38860;DHT22;24609;48.316;16.174;2024-03-17T13:32:56;19.90;95.10
38860;DHT22;24609;48.316;16.174;2024-03-17T13:35:29;18.80;93.10
38860;DHT22;24609;48.316;16.174;2024-03-17T13:37:56;18.60;93.10
38860;DHT22;24609;48.316;16.174;2024-03-17T13:40:25;22.50;99.40
38860;DHT22;24609;48.316;16.174;2024-03-17T13:42:52;21.50;93.20
38860;DHT22;24609;48.316;16.174;2024-03-17T13:45:21;19.70;99.90
38860;DHT22;24609;48.316;16.174;2024-03-17T13:47:51;18.90;92.60
38860;DHT22;24609;48.316;16.174;2024-03-17T13:50:17;17.90;90.30
38860;DHT22;24609;48.316;16.174;2024-03-17T13:52:43;17.60;92.20
38860;DHT22;24609;48.316;16.174;2024-03-17T13:55:17;17.80;91.70
38860;DHT22;24609;48.316;16.174;2024-03-17T13:57:45;17.90;92.60
38860;DHT22;24609;48.316;16.174;2024-03-17T14:00:12;17.50;91.60
38860;DHT22;24609;48.316;16.174;2024-03-17T14:02:49;16.90;89.40
38860;DHT22;24609;48.316;16.174;2024-03-17T14:05:17;16.50;90.70
38860;DHT22;24609;48.316;16.174;2024-03-17T14:07:44;15.60;90.70
38860;DHT22;24609;48.316;16.174;2024-03-17T14:10:11;15.20;87.60
38860;DHT22;24609;48.316;16.174;2024-03-17T14:12:37;14.90;85.00
38860;DHT22;24609;48.316;16.174;2024-03-17T14:15:05;14.90;89.50
38860;DHT22;24609;48.316;16.174;2024-03-17T14:17:31;15.10;90.70
38860;DHT22;24609;48.316;16.174;2024-03-17T14:19:57;15.00;90.30
38860;DHT22;24609;48.316;16.174;2024-03-17T14:22:22;15.00;90.10
38860;DHT22;24609;48.316;16.174;2024-03-17T14:24:48;15.40;91.60
38860;DHT22;24609;48.316;16.174;2024-03-17T14:27:15;15.90;93.00
38860;DHT22;24609;48.316;16.174;2024-03-17T14:29:41;16.30;93.50
38860;DHT22;24609;48.316;16.174;2024-03-17T14:32:07;16.40;93.90
38860;DHT22;24609;48.316;16.174;2024-03-17T14:34:33;16.00;91.70
38860;DHT22;24609;48.316;16.174;2024-03-17T14:37:02;15.30;91.30
38860;DHT22;24609;48.316;16.174;2024-03-17T14:39:29;15.30;92.10
38860;DHT22;24609;48.316;16.174;2024-03-17T14:41:55;15.10;91.80
38860;DHT22;24609;48.316;16.174;2024-03-17T14:44:22;15.10;92.90
38860;DHT22;24609;48.316;16.174;2024-03-17T14:46:48;15.10;93.30
38860;DHT22;24609;48.316;16.174;2024-03-17T14:49:17;15.20;92.40
38860;DHT22;24609;48.316;16.174;2024-03-17T14:51:42;15.60;94.30
38860;DHT22;24609;48.316;16.174;2024-03-17T14:54:08;16.10;95.40
38860;DHT22;24609;48.316;16.174;2024-03-17T14:56:37;15.30;99.40
38860;DHT22;24609;48.316;16.174;2024-03-17T14:59:03;15.20;94.10
38860;DHT22;24609;48.316;16.174;2024-03-17T15:01:29;14.80;93.60
38860;DHT22;24609;48.316;16.174;2024-03-17T15:03:55;14.40;93.30
38860;DHT22;24609;48.316;16.174;2024-03-17T15:06:21;14.00;93.30
38860;DHT22;24609;48.316;16.174;2024-03-17T15:08:47;13.70;93.20
38860;DHT22;24609;48.316;16.174;2024-03-17T15:11:13;13.60;92.50
38860;DHT22;24609;48.316;16.174;2024-03-17T15:13:39;13.50;93.80
38860;DHT22;24609;48.316;16.174;2024-03-17T15:16:07;13.50;93.20
38860;DHT22;24609;48.316;16.174;2024-03-17T15:18:33;13.30;93.80
38860;DHT22;24609;48.316;16.174;2024-03-17T15:21:02;13.10;92.70
38860;DHT22;24609;48.316;16.174;2024-03-17T15:23:31;12.90;92.70
38860;DHT22;24609;48.316;16.174;2024-03-17T15:26:00;13.00;94.30
38860;DHT22;24609;48.316;16.174;2024-03-17T15:28:31;13.00;95.60
38860;DHT22;24609;48.316;16.174;2024-03-17T15:30:57;13.10;95.80
38860;DHT22;24609;48.316;16.174;2024-03-17T15:33:26;13.30;96.00
38860;DHT22;24609;48.316;16.174;2024-03-17T15:35:51;13.20;94.80
38860;DHT22;24609;48.316;16.174;2024-03-17T15:38:17;13.50;96.10
38860;DHT22;24609;48.316;16.174;2024-03-17T15:40:43;13.80;96.50
38860;DHT22;24609;48.316;16.174;2024-03-17T15:43:09;13.90;95.50
38860;DHT22;24609;48.316;16.174;2024-03-17T15:45:35;13.90;97.20
38860;DHT22;24609;48.316;16.174;2024-03-17T15:48:04;13.60;95.00
38860;DHT22;24609;48.316;16.174;2024-03-17T15:50:30;13.20;95.10
38860;DHT22;24609;48.316;16.174;2024-03-17T15:52:56;12.90;94.00
38860;DHT22;24609;48.316;16.174;2024-03-17T15:55:22;12.70;94.40